CYYG

Charlottetown Airport

Charlottetown, Prince Edward Island, Canada
METAR CYYG 240321Z 33010G16KT 15SM FEW034 BKN060 07/04 A3030 RMK SC2SC5 SLP264
Observed Flight Rules
Sep-24 @ 03:21 UTC (26 minutes ago) Visual Flight Rules
Wind Visibility Clouds
330° at 10 knots
 Gusting to 16 knots
15 miles
  • Few at 3,400' AGL
  • Broken at 6,000' AGL
Temperatures Readings
Current 7°C / 45°F
Dewpoint 4°C / 39°F
Humidity 81%
Altimeter 30.3" Hg
Pressure 1026.4 hPa
Elevation 54
METAR CYYG 240321Z 33010G16KT 15SM FEW034 BKN060 07/04 A3030 RMK SC2SC5 SLP264
Observed Flight Rules
Sep-24 @ 03:21 UTC
(26 minutes ago)
VFR
Wind Visibility
330° at 10 knots
 Gusting to 16 knots
15 miles
Clouds
  • Few at 3,400' AGL
  • Broken at 6,000' AGL
Temperature Dewpoint
7°C / 45°F 4°C / 39°F
Humidity Altimeter Pressure
81% 30.3" Hg 1026.4 hPa